sensor_id;sensor_type;location;lat;lon;timestamp;P1;durP1;ratioP1;P2;durP2;ratioP2
8913;SDS011;4492;48.736;9.092;2023-03-01T00:00:54;19.23;;;9.83;;
8913;SDS011;4492;48.736;9.092;2023-03-01T00:03:25;20.50;;;10.70;;
8913;SDS011;4492;48.736;9.092;2023-03-01T00:05:50;20.00;;;10.47;;
8913;SDS011;4492;48.736;9.092;2023-03-01T00:08:16;20.43;;;10.53;;
8913;SDS011;4492;48.736;9.092;2023-03-01T00:10:41;18.67;;;9.37;;
8913;SDS011;4492;48.736;9.092;2023-03-01T00:13:07;20.37;;;10.47;;
8913;SDS011;4492;48.736;9.092;2023-03-01T00:15:32;17.43;;;9.50;;
8913;SDS011;4492;48.736;9.092;2023-03-01T00:18:00;19.93;;;10.43;;
8913;SDS011;4492;48.736;9.092;2023-03-01T00:20:25;18.10;;;10.37;;
8913;SDS011;4492;48.736;9.092;2023-03-01T00:22:51;20.33;;;10.07;;
8913;SDS011;4492;48.736;9.092;2023-03-01T00:25:16;18.17;;;9.77;;
8913;SDS011;4492;48.736;9.092;2023-03-01T00:27:42;19.70;;;9.47;;
8913;SDS011;4492;48.736;9.092;2023-03-01T00:30:08;17.37;;;9.20;;
8913;SDS011;4492;48.736;9.092;2023-03-01T00:32:35;16.13;;;9.20;;
8913;SDS011;4492;48.736;9.092;2023-03-01T00:35:00;17.23;;;9.53;;
8913;SDS011;4492;48.736;9.092;2023-03-01T00:37:26;18.63;;;9.97;;
8913;SDS011;4492;48.736;9.092;2023-03-01T00:39:51;16.63;;;9.10;;
8913;SDS011;4492;48.736;9.092;2023-03-01T00:42:17;18.03;;;9.57;;
8913;SDS011;4492;48.736;9.092;2023-03-01T00:44:42;20.30;;;9.73;;
8913;SDS011;4492;48.736;9.092;2023-03-01T00:47:08;18.37;;;9.77;;
8913;SDS011;4492;48.736;9.092;2023-03-01T00:49:33;22.40;;;10.63;;
8913;SDS011;4492;48.736;9.092;2023-03-01T00:51:59;20.33;;;9.83;;
8913;SDS011;4492;48.736;9.092;2023-03-01T00:54:25;21.10;;;9.90;;
8913;SDS011;4492;48.736;9.092;2023-03-01T00:56:50;22.70;;;9.87;;
8913;SDS011;4492;48.736;9.092;2023-03-01T00:59:16;21.73;;;9.40;;
8913;SDS011;4492;48.736;9.092;2023-03-01T01:01:41;20.90;;;10.60;;
8913;SDS011;4492;48.736;9.092;2023-03-01T01:04:08;16.83;;;9.57;;
8913;SDS011;4492;48.736;9.092;2023-03-01T01:06:36;21.17;;;10.53;;
8913;SDS011;4492;48.736;9.092;2023-03-01T01:09:04;20.20;;;10.80;;
8913;SDS011;4492;48.736;9.092;2023-03-01T01:11:32;21.13;;;10.83;;
8913;SDS011;4492;48.736;9.092;2023-03-01T01:13:58;21.40;;;10.20;;
8913;SDS011;4492;48.736;9.092;2023-03-01T01:16:25;20.13;;;9.83;;
8913;SDS011;4492;48.736;9.092;2023-03-01T01:18:52;21.07;;;10.60;;
8913;SDS011;4492;48.736;9.092;2023-03-01T01:21:19;19.83;;;10.37;;
8913;SDS011;4492;48.736;9.092;2023-03-01T01:23:47;21.77;;;10.40;;
8913;SDS011;4492;48.736;9.092;2023-03-01T01:26:17;17.87;;;9.93;;
8913;SDS011;4492;48.736;9.092;2023-03-01T01:28:48;20.63;;;10.50;;
8913;SDS011;4492;48.736;9.092;2023-03-01T01:31:14;19.40;;;10.43;;
8913;SDS011;4492;48.736;9.092;2023-03-01T01:33:40;19.90;;;10.10;;
8913;SDS011;4492;48.736;9.092;2023-03-01T01:36:06;18.37;;;10.00;;
8913;SDS011;4492;48.736;9.092;2023-03-01T01:38:33;20.20;;;10.17;;
8913;SDS011;4492;48.736;9.092;2023-03-01T01:40:59;21.73;;;11.60;;
8913;SDS011;4492;48.736;9.092;2023-03-01T01:43:26;19.93;;;9.70;;
8913;SDS011;4492;48.736;9.092;2023-03-01T01:46:04;25.13;;;11.13;;
8913;SDS011;4492;48.736;9.092;2023-03-01T01:48:55;25.37;;;11.60;;
8913;SDS011;4492;48.736;9.092;2023-03-01T01:51:27;19.77;;;10.27;;
8913;SDS011;4492;48.736;9.092;2023-03-01T01:54:03;24.83;;;11.00;;
8913;SDS011;4492;48.736;9.092;2023-03-01T01:57:00;21.57;;;11.20;;
8913;SDS011;4492;48.736;9.092;2023-03-01T01:59:31;21.43;;;10.77;;
8913;SDS011;4492;48.736;9.092;2023-03-01T02:01:59;23.83;;;11.50;;
8913;SDS011;4492;48.736;9.092;2023-03-01T02:04:26;21.20;;;10.60;;
8913;SDS011;4492;48.736;9.092;2023-03-01T02:07:14;21.27;;;10.77;;
8913;SDS011;4492;48.736;9.092;2023-03-01T02:09:44;19.13;;;10.60;;
8913;SDS011;4492;48.736;9.092;2023-03-01T02:12:12;22.60;;;11.27;;
8913;SDS011;4492;48.736;9.092;2023-03-01T02:14:40;25.97;;;12.07;;
8913;SDS011;4492;48.736;9.092;2023-03-01T02:17:05;21.77;;;11.50;;
8913;SDS011;4492;48.736;9.092;2023-03-01T02:19:40;31.17;;;12.80;;
8913;SDS011;4492;48.736;9.092;2023-03-01T02:22:25;22.37;;;11.53;;
8913;SDS011;4492;48.736;9.092;2023-03-01T02:27:41;23.43;;;11.00;;
8913;SDS011;4492;48.736;9.092;2023-03-01T02:30:20;18.63;;;10.37;;
8913;SDS011;4492;48.736;9.092;2023-03-01T02:32:47;20.77;;;10.83;;
8913;SDS011;4492;48.736;9.092;2023-03-01T02:35:14;27.70;;;11.40;;
8913;SDS011;4492;48.736;9.092;2023-03-01T02:37:41;21.67;;;11.40;;
8913;SDS011;4492;48.736;9.092;2023-03-01T02:40:08;22.20;;;11.40;;
8913;SDS011;4492;48.736;9.092;2023-03-01T02:42:40;21.13;;;11.40;;
8913;SDS011;4492;48.736;9.092;2023-03-01T02:45:17;18.90;;;11.07;;
8913;SDS011;4492;48.736;9.092;2023-03-01T02:47:43;21.37;;;10.87;;
8913;SDS011;4492;48.736;9.092;2023-03-01T02:50:45;20.93;;;11.30;;
8913;SDS011;4492;48.736;9.092;2023-03-01T02:53:27;28.60;;;12.40;;
8913;SDS011;4492;48.736;9.092;2023-03-01T02:56:00;23.37;;;11.17;;
8913;SDS011;4492;48.736;9.092;2023-03-01T02:58:26;21.60;;;11.50;;
8913;SDS011;4492;48.736;9.092;2023-03-01T03:00:52;24.37;;;12.50;;
8913;SDS011;4492;48.736;9.092;2023-03-01T03:03:19;21.73;;;11.47;;
8913;SDS011;4492;48.736;9.092;2023-03-01T03:05:46;22.80;;;11.33;;
8913;SDS011;4492;48.736;9.092;2023-03-01T03:08:13;24.70;;;11.53;;
8913;SDS011;4492;48.736;9.092;2023-03-01T03:10:41;23.13;;;12.47;;
8913;SDS011;4492;48.736;9.092;2023-03-01T03:13:14;21.53;;;11.07;;
8913;SDS011;4492;48.736;9.092;2023-03-01T03:15:40;25.23;;;11.53;;
8913;SDS011;4492;48.736;9.092;2023-03-01T03:18:07;20.73;;;11.27;;
8913;SDS011;4492;48.736;9.092;2023-03-01T03:20:35;20.77;;;11.90;;
8913;SDS011;4492;48.736;9.092;2023-03-01T03:23:02;25.23;;;12.07;;
8913;SDS011;4492;48.736;9.092;2023-03-01T03:25:28;24.97;;;12.37;;
8913;SDS011;4492;48.736;9.092;2023-03-01T03:27:54;19.90;;;11.40;;
8913;SDS011;4492;48.736;9.092;2023-03-01T03:30:25;21.57;;;10.93;;
8913;SDS011;4492;48.736;9.092;2023-03-01T03:32:54;23.30;;;11.23;;
8913;SDS011;4492;48.736;9.092;2023-03-01T03:35:24;25.10;;;11.63;;
8913;SDS011;4492;48.736;9.092;2023-03-01T03:37:54;21.87;;;11.97;;
8913;SDS011;4492;48.736;9.092;2023-03-01T03:40:27;19.90;;;11.17;;
8913;SDS011;4492;48.736;9.092;2023-03-01T03:43:05;22.00;;;11.57;;
8913;SDS011;4492;48.736;9.092;2023-03-01T03:45:32;20.70;;;10.70;;
8913;SDS011;4492;48.736;9.092;2023-03-01T03:47:58;23.53;;;11.57;;
8913;SDS011;4492;48.736;9.092;2023-03-01T03:50:25;26.43;;;11.67;;
8913;SDS011;4492;48.736;9.092;2023-03-01T03:52:51;25.30;;;12.93;;
8913;SDS011;4492;48.736;9.092;2023-03-01T03:55:17;24.03;;;12.53;;
8913;SDS011;4492;48.736;9.092;2023-03-01T03:57:44;22.37;;;11.77;;
8913;SDS011;4492;48.736;9.092;2023-03-01T04:00:17;24.93;;;12.77;;
8913;SDS011;4492;48.736;9.092;2023-03-01T04:02:44;24.50;;;12.67;;
8913;SDS011;4492;48.736;9.092;2023-03-01T04:05:11;22.30;;;11.73;;
8913;SDS011;4492;48.736;9.092;2023-03-01T04:07:39;24.70;;;12.00;;
8913;SDS011;4492;48.736;9.092;2023-03-01T04:10:06;20.87;;;11.63;;
8913;SDS011;4492;48.736;9.092;2023-03-01T04:12:36;19.97;;;11.37;;
8913;SDS011;4492;48.736;9.092;2023-03-01T04:15:03;23.73;;;11.90;;
8913;SDS011;4492;48.736;9.092;2023-03-01T04:17:37;20.77;;;11.37;;
8913;SDS011;4492;48.736;9.092;2023-03-01T04:20:12;23.33;;;11.80;;
8913;SDS011;4492;48.736;9.092;2023-03-01T04:22:39;24.07;;;12.23;;
8913;SDS011;4492;48.736;9.092;2023-03-01T04:25:05;26.97;;;11.63;;
8913;SDS011;4492;48.736;9.092;2023-03-01T04:27:32;25.00;;;12.13;;
8913;SDS011;4492;48.736;9.092;2023-03-01T04:29:58;23.17;;;12.73;;
8913;SDS011;4492;48.736;9.092;2023-03-01T04:32:24;21.27;;;11.50;;
8913;SDS011;4492;48.736;9.092;2023-03-01T04:34:49;26.10;;;13.00;;
8913;SDS011;4492;48.736;9.092;2023-03-01T04:37:15;22.40;;;12.10;;
8913;SDS011;4492;48.736;9.092;2023-03-01T04:39:41;22.07;;;12.10;;
8913;SDS011;4492;48.736;9.092;2023-03-01T04:42:11;21.73;;;11.80;;
8913;SDS011;4492;48.736;9.092;2023-03-01T04:44:37;21.20;;;11.33;;
8913;SDS011;4492;48.736;9.092;2023-03-01T04:47:02;21.90;;;12.47;;
8913;SDS011;4492;48.736;9.092;2023-03-01T04:49:28;23.33;;;11.83;;
8913;SDS011;4492;48.736;9.092;2023-03-01T04:51:53;26.47;;;13.10;;
8913;SDS011;4492;48.736;9.092;2023-03-01T04:54:19;24.17;;;12.60;;
8913;SDS011;4492;48.736;9.092;2023-03-01T04:56:44;23.73;;;12.53;;
8913;SDS011;4492;48.736;9.092;2023-03-01T04:59:10;23.83;;;12.63;;
8913;SDS011;4492;48.736;9.092;2023-03-01T05:01:37;27.13;;;12.77;;
8913;SDS011;4492;48.736;9.092;2023-03-01T05:04:03;25.37;;;12.67;;
8913;SDS011;4492;48.736;9.092;2023-03-01T05:06:30;23.10;;;12.23;;
8913;SDS011;4492;48.736;9.092;2023-03-01T05:08:56;24.60;;;12.90;;
8913;SDS011;4492;48.736;9.092;2023-03-01T05:11:22;23.50;;;11.53;;
8913;SDS011;4492;48.736;9.092;2023-03-01T05:13:48;23.40;;;12.23;;
8913;SDS011;4492;48.736;9.092;2023-03-01T05:16:14;25.07;;;13.07;;
8913;SDS011;4492;48.736;9.092;2023-03-01T05:18:41;22.50;;;12.30;;
8913;SDS011;4492;48.736;9.092;2023-03-01T05:21:11;26.77;;;12.90;;
8913;SDS011;4492;48.736;9.092;2023-03-01T05:23:41;23.60;;;12.40;;
8913;SDS011;4492;48.736;9.092;2023-03-01T05:26:07;23.10;;;12.53;;
8913;SDS011;4492;48.736;9.092;2023-03-01T05:28:33;32.30;;;13.53;;
8913;SDS011;4492;48.736;9.092;2023-03-01T05:30:59;24.13;;;13.07;;
8913;SDS011;4492;48.736;9.092;2023-03-01T05:33:25;29.33;;;13.00;;
8913;SDS011;4492;48.736;9.092;2023-03-01T05:35:51;24.13;;;13.47;;
8913;SDS011;4492;48.736;9.092;2023-03-01T05:38:18;22.07;;;13.00;;
8913;SDS011;4492;48.736;9.092;2023-03-01T05:40:45;27.80;;;14.10;;
8913;SDS011;4492;48.736;9.092;2023-03-01T05:43:13;25.00;;;13.30;;
8913;SDS011;4492;48.736;9.092;2023-03-01T05:45:40;27.00;;;13.53;;
8913;SDS011;4492;48.736;9.092;2023-03-01T05:48:06;25.43;;;14.30;;
8913;SDS011;4492;48.736;9.092;2023-03-01T05:50:34;26.77;;;13.77;;
8913;SDS011;4492;48.736;9.092;2023-03-01T05:53:05;24.73;;;13.30;;
8913;SDS011;4492;48.736;9.092;2023-03-01T05:55:34;28.50;;;13.23;;
8913;SDS011;4492;48.736;9.092;2023-03-01T05:58:01;25.57;;;13.53;;
8913;SDS011;4492;48.736;9.092;2023-03-01T06:00:28;26.03;;;12.93;;
8913;SDS011;4492;48.736;9.092;2023-03-01T06:02:55;27.17;;;14.47;;
8913;SDS011;4492;48.736;9.092;2023-03-01T06:05:21;30.40;;;14.30;;
8913;SDS011;4492;48.736;9.092;2023-03-01T06:07:47;24.53;;;12.77;;
8913;SDS011;4492;48.736;9.092;2023-03-01T06:10:14;27.37;;;13.67;;
8913;SDS011;4492;48.736;9.092;2023-03-01T06:12:43;25.63;;;13.43;;
8913;SDS011;4492;48.736;9.092;2023-03-01T06:15:09;31.33;;;13.67;;
8913;SDS011;4492;48.736;9.092;2023-03-01T06:17:40;25.23;;;13.27;;
8913;SDS011;4492;48.736;9.092;2023-03-01T06:20:08;27.27;;;13.37;;
8913;SDS011;4492;48.736;9.092;2023-03-01T06:22:45;23.83;;;13.43;;
8913;SDS011;4492;48.736;9.092;2023-03-01T06:25:12;24.60;;;13.10;;
8913;SDS011;4492;48.736;9.092;2023-03-01T06:27:40;27.07;;;13.07;;
8913;SDS011;4492;48.736;9.092;2023-03-01T06:30:07;24.97;;;12.57;;
8913;SDS011;4492;48.736;9.092;2023-03-01T06:32:35;27.50;;;13.23;;
8913;SDS011;4492;48.736;9.092;2023-03-01T06:35:02;22.93;;;12.20;;
8913;SDS011;4492;48.736;9.092;2023-03-01T06:37:28;24.93;;;12.83;;
8913;SDS011;4492;48.736;9.092;2023-03-01T06:39:53;27.63;;;13.53;;
8913;SDS011;4492;48.736;9.092;2023-03-01T06:42:19;23.97;;;13.00;;
8913;SDS011;4492;48.736;9.092;2023-03-01T06:44:45;23.50;;;12.97;;
8913;SDS011;4492;48.736;9.092;2023-03-01T06:47:10;23.67;;;13.07;;
8913;SDS011;4492;48.736;9.092;2023-03-01T06:49:36;25.30;;;13.20;;
8913;SDS011;4492;48.736;9.092;2023-03-01T06:52:02;22.53;;;12.10;;
8913;SDS011;4492;48.736;9.092;2023-03-01T06:54:27;24.97;;;13.20;;
8913;SDS011;4492;48.736;9.092;2023-03-01T06:56:53;23.87;;;12.07;;
8913;SDS011;4492;48.736;9.092;2023-03-01T06:59:19;24.83;;;13.07;;
8913;SDS011;4492;48.736;9.092;2023-03-01T07:01:44;25.93;;;12.83;;
8913;SDS011;4492;48.736;9.092;2023-03-01T07:04:10;24.30;;;13.50;;
8913;SDS011;4492;48.736;9.092;2023-03-01T07:06:37;25.77;;;13.20;;
8913;SDS011;4492;48.736;9.092;2023-03-01T07:09:02;26.10;;;13.00;;
8913;SDS011;4492;48.736;9.092;2023-03-01T07:11:28;24.83;;;13.07;;
8913;SDS011;4492;48.736;9.092;2023-03-01T07:13:53;26.50;;;13.27;;
8913;SDS011;4492;48.736;9.092;2023-03-01T07:16:20;28.13;;;13.90;;
8913;SDS011;4492;48.736;9.092;2023-03-01T07:18:45;24.77;;;12.87;;
8913;SDS011;4492;48.736;9.092;2023-03-01T07:21:12;25.03;;;13.70;;
8913;SDS011;4492;48.736;9.092;2023-03-01T07:23:39;27.53;;;14.13;;
8913;SDS011;4492;48.736;9.092;2023-03-01T07:26:05;29.03;;;14.90;;
8913;SDS011;4492;48.736;9.092;2023-03-01T07:28:31;30.30;;;15.20;;
8913;SDS011;4492;48.736;9.092;2023-03-01T07:31:04;25.70;;;13.13;;
8913;SDS011;4492;48.736;9.092;2023-03-01T07:33:32;32.70;;;14.90;;
8913;SDS011;4492;48.736;9.092;2023-03-01T07:36:01;24.93;;;13.57;;
8913;SDS011;4492;48.736;9.092;2023-03-01T07:38:28;26.20;;;13.03;;
8913;SDS011;4492;48.736;9.092;2023-03-01T07:40:57;29.10;;;14.07;;
8913;SDS011;4492;48.736;9.092;2023-03-01T07:43:29;26.70;;;13.93;;
8913;SDS011;4492;48.736;9.092;2023-03-01T07:45:57;29.57;;;14.13;;
8913;SDS011;4492;48.736;9.092;2023-03-01T07:48:24;26.90;;;13.27;;
8913;SDS011;4492;48.736;9.092;2023-03-01T07:50:49;26.63;;;13.40;;
8913;SDS011;4492;48.736;9.092;2023-03-01T07:53:15;28.27;;;14.37;;
8913;SDS011;4492;48.736;9.092;2023-03-01T07:55:40;27.43;;;13.27;;
8913;SDS011;4492;48.736;9.092;2023-03-01T07:58:06;28.33;;;14.43;;
8913;SDS011;4492;48.736;9.092;2023-03-01T08:00:31;28.73;;;14.27;;
8913;SDS011;4492;48.736;9.092;2023-03-01T08:03:00;27.40;;;13.83;;
8913;SDS011;4492;48.736;9.092;2023-03-01T08:05:27;27.13;;;13.30;;
8913;SDS011;4492;48.736;9.092;2023-03-01T08:07:53;30.50;;;14.63;;
8913;SDS011;4492;48.736;9.092;2023-03-01T08:10:19;27.93;;;14.13;;
8913;SDS011;4492;48.736;9.092;2023-03-01T08:12:45;28.47;;;13.97;;
8913;SDS011;4492;48.736;9.092;2023-03-01T08:15:10;26.50;;;14.03;;
8913;SDS011;4492;48.736;9.092;2023-03-01T08:17:36;28.33;;;13.20;;
8913;SDS011;4492;48.736;9.092;2023-03-01T08:20:02;25.83;;;14.20;;
8913;SDS011;4492;48.736;9.092;2023-03-01T08:22:29;24.20;;;13.90;;
8913;SDS011;4492;48.736;9.092;2023-03-01T08:24:54;26.90;;;14.10;;
8913;SDS011;4492;48.736;9.092;2023-03-01T08:27:20;26.67;;;14.83;;
8913;SDS011;4492;48.736;9.092;2023-03-01T08:29:46;28.50;;;14.30;;
8913;SDS011;4492;48.736;9.092;2023-03-01T08:32:12;28.30;;;13.93;;
8913;SDS011;4492;48.736;9.092;2023-03-01T08:34:37;27.10;;;13.73;;
8913;SDS011;4492;48.736;9.092;2023-03-01T08:37:03;30.63;;;13.97;;
8913;SDS011;4492;48.736;9.092;2023-03-01T08:39:28;29.90;;;14.10;;
8913;SDS011;4492;48.736;9.092;2023-03-01T08:41:54;26.67;;;13.67;;
8913;SDS011;4492;48.736;9.092;2023-03-01T08:44:20;28.17;;;14.17;;
8913;SDS011;4492;48.736;9.092;2023-03-01T08:46:46;29.17;;;14.27;;
8913;SDS011;4492;48.736;9.092;2023-03-01T08:49:16;26.87;;;14.23;;
8913;SDS011;4492;48.736;9.092;2023-03-01T08:51:43;28.57;;;13.73;;
8913;SDS011;4492;48.736;9.092;2023-03-01T08:54:10;30.00;;;14.53;;
8913;SDS011;4492;48.736;9.092;2023-03-01T08:56:38;28.13;;;14.07;;
8913;SDS011;4492;48.736;9.092;2023-03-01T08:59:03;26.53;;;14.43;;
8913;SDS011;4492;48.736;9.092;2023-03-01T09:01:29;27.50;;;14.13;;
8913;SDS011;4492;48.736;9.092;2023-03-01T09:03:54;27.67;;;14.00;;
8913;SDS011;4492;48.736;9.092;2023-03-01T09:06:20;26.70;;;14.33;;
8913;SDS011;4492;48.736;9.092;2023-03-01T09:08:47;29.97;;;15.10;;
8913;SDS011;4492;48.736;9.092;2023-03-01T09:11:15;26.50;;;14.73;;
8913;SDS011;4492;48.736;9.092;2023-03-01T09:13:42;27.43;;;14.60;;
8913;SDS011;4492;48.736;9.092;2023-03-01T09:16:10;26.20;;;14.50;;
8913;SDS011;4492;48.736;9.092;2023-03-01T09:18:36;27.30;;;14.10;;
8913;SDS011;4492;48.736;9.092;2023-03-01T09:21:06;27.30;;;14.23;;
8913;SDS011;4492;48.736;9.092;2023-03-01T09:23:37;25.97;;;14.33;;
8913;SDS011;4492;48.736;9.092;2023-03-01T09:26:05;27.37;;;13.97;;
8913;SDS011;4492;48.736;9.092;2023-03-01T09:28:31;31.70;;;15.63;;
8913;SDS011;4492;48.736;9.092;2023-03-01T09:30:58;28.00;;;15.03;;
8913;SDS011;4492;48.736;9.092;2023-03-01T09:33:24;26.00;;;14.30;;
8913;SDS011;4492;48.736;9.092;2023-03-01T09:35:55;28.67;;;14.50;;
8913;SDS011;4492;48.736;9.092;2023-03-01T09:38:30;31.37;;;15.17;;
8913;SDS011;4492;48.736;9.092;2023-03-01T09:40:56;25.97;;;14.37;;
8913;SDS011;4492;48.736;9.092;2023-03-01T09:46:19;23.93;;;13.67;;
8913;SDS011;4492;48.736;9.092;2023-03-01T09:48:51;24.87;;;14.07;;
8913;SDS011;4492;48.736;9.092;2023-03-01T09:51:23;25.70;;;14.67;;
8913;SDS011;4492;48.736;9.092;2023-03-01T09:53:58;28.73;;;14.83;;
8913;SDS011;4492;48.736;9.092;2023-03-01T09:56:33;26.00;;;14.00;;
8913;SDS011;4492;48.736;9.092;2023-03-01T10:01:52;24.87;;;14.07;;
8913;SDS011;4492;48.736;9.092;2023-03-01T10:04:45;24.00;;;13.33;;
8913;SDS011;4492;48.736;9.092;2023-03-01T10:07:30;26.83;;;14.30;;
8913;SDS011;4492;48.736;9.092;2023-03-01T10:10:05;26.77;;;14.43;;
8913;SDS011;4492;48.736;9.092;2023-03-01T10:12:37;26.53;;;14.50;;
8913;SDS011;4492;48.736;9.092;2023-03-01T10:15:19;24.97;;;14.10;;
8913;SDS011;4492;48.736;9.092;2023-03-01T10:18:01;24.77;;;14.27;;
8913;SDS011;4492;48.736;9.092;2023-03-01T10:23:22;24.00;;;14.40;;
8913;SDS011;4492;48.736;9.092;2023-03-01T10:31:40;23.60;;;13.20;;
8913;SDS011;4492;48.736;9.092;2023-03-01T10:34:22;25.07;;;13.50;;
8913;SDS011;4492;48.736;9.092;2023-03-01T10:36:55;22.57;;;13.20;;
8913;SDS011;4492;48.736;9.092;2023-03-01T10:39:26;26.93;;;14.07;;
8913;SDS011;4492;48.736;9.092;2023-03-01T10:44:36;24.57;;;13.70;;
8913;SDS011;4492;48.736;9.092;2023-03-01T10:47:13;23.77;;;13.77;;
8913;SDS011;4492;48.736;9.092;2023-03-01T10:49:39;25.03;;;13.67;;
8913;SDS011;4492;48.736;9.092;2023-03-01T10:52:18;22.33;;;13.80;;
8913;SDS011;4492;48.736;9.092;2023-03-01T10:54:56;27.77;;;13.80;;
8913;SDS011;4492;48.736;9.092;2023-03-01T10:57:32;27.17;;;14.47;;
8913;SDS011;4492;48.736;9.092;2023-03-01T11:00:15;24.23;;;13.33;;
8913;SDS011;4492;48.736;9.092;2023-03-01T11:02:51;23.93;;;13.63;;
8913;SDS011;4492;48.736;9.092;2023-03-01T11:05:28;24.53;;;13.47;;
8913;SDS011;4492;48.736;9.092;2023-03-01T11:07:59;24.63;;;13.30;;
8913;SDS011;4492;48.736;9.092;2023-03-01T11:13:16;24.27;;;14.00;;
8913;SDS011;4492;48.736;9.092;2023-03-01T11:15:43;22.40;;;12.97;;
8913;SDS011;4492;48.736;9.092;2023-03-01T11:18:24;22.87;;;13.17;;
8913;SDS011;4492;48.736;9.092;2023-03-01T11:20:51;23.90;;;13.27;;
8913;SDS011;4492;48.736;9.092;2023-03-01T11:23:20;24.83;;;14.37;;
8913;SDS011;4492;48.736;9.092;2023-03-01T11:25:57;22.80;;;12.87;;
8913;SDS011;4492;48.736;9.092;2023-03-01T11:28:26;22.33;;;13.13;;
8913;SDS011;4492;48.736;9.092;2023-03-01T11:30:55;21.60;;;12.63;;
8913;SDS011;4492;48.736;9.092;2023-03-01T11:36:32;25.37;;;13.90;;
8913;SDS011;4492;48.736;9.092;2023-03-01T11:39:17;23.17;;;13.43;;
8913;SDS011;4492;48.736;9.092;2023-03-01T11:42:05;19.60;;;12.10;;
8913;SDS011;4492;48.736;9.092;2023-03-01T11:44:37;22.73;;;13.30;;
8913;SDS011;4492;48.736;9.092;2023-03-01T11:49:48;19.80;;;12.80;;
8913;SDS011;4492;48.736;9.092;2023-03-01T11:52:22;21.93;;;12.97;;
8913;SDS011;4492;48.736;9.092;2023-03-01T11:58:08;22.17;;;13.13;;
8913;SDS011;4492;48.736;9.092;2023-03-01T12:11:56;19.50;;;12.00;;
8913;SDS011;4492;48.736;9.092;2023-03-01T12:17:13;22.07;;;13.17;;
8913;SDS011;4492;48.736;9.092;2023-03-01T12:25:20;23.50;;;13.27;;
8913;SDS011;4492;48.736;9.092;2023-03-01T12:27:57;21.07;;;12.83;;
8913;SDS011;4492;48.736;9.092;2023-03-01T12:35:52;23.07;;;13.37;;
8913;SDS011;4492;48.736;9.092;2023-03-01T12:46:44;23.47;;;12.67;;
8913;SDS011;4492;48.736;9.092;2023-03-01T12:49:19;20.73;;;11.90;;
8913;SDS011;4492;48.736;9.092;2023-03-01T12:51:54;21.43;;;12.23;;
8913;SDS011;4492;48.736;9.092;2023-03-01T12:54:28;20.50;;;12.17;;
8913;SDS011;4492;48.736;9.092;2023-03-01T12:56:56;19.73;;;11.40;;
8913;SDS011;4492;48.736;9.092;2023-03-01T12:59:51;16.80;;;11.53;;
8913;SDS011;4492;48.736;9.092;2023-03-01T13:05:19;16.23;;;10.53;;
8913;SDS011;4492;48.736;9.092;2023-03-01T13:12:53;19.90;;;11.53;;
8913;SDS011;4492;48.736;9.092;2023-03-01T13:15:34;18.40;;;11.70;;
8913;SDS011;4492;48.736;9.092;2023-03-01T13:20:47;18.67;;;11.67;;
8913;SDS011;4492;48.736;9.092;2023-03-01T13:33:54;17.10;;;10.63;;
8913;SDS011;4492;48.736;9.092;2023-03-01T13:39:00;17.37;;;10.80;;
8913;SDS011;4492;48.736;9.092;2023-03-01T13:41:48;16.87;;;10.60;;
8913;SDS011;4492;48.736;9.092;2023-03-01T13:47:12;17.23;;;11.10;;
8913;SDS011;4492;48.736;9.092;2023-03-01T13:49:53;18.37;;;10.93;;
8913;SDS011;4492;48.736;9.092;2023-03-01T13:52:31;19.37;;;11.87;;
8913;SDS011;4492;48.736;9.092;2023-03-01T13:55:29;19.27;;;12.13;;
8913;SDS011;4492;48.736;9.092;2023-03-01T13:58:28;19.43;;;12.27;;
8913;SDS011;4492;48.736;9.092;2023-03-01T14:03:24;19.60;;;12.60;;
8913;SDS011;4492;48.736;9.092;2023-03-01T14:06:07;22.03;;;12.43;;
8913;SDS011;4492;48.736;9.092;2023-03-01T14:08:46;22.63;;;12.97;;
8913;SDS011;4492;48.736;9.092;2023-03-01T14:19:48;22.13;;;12.67;;
8913;SDS011;4492;48.736;9.092;2023-03-01T14:22:28;20.20;;;12.70;;
8913;SDS011;4492;48.736;9.092;2023-03-01T14:25:05;23.07;;;13.43;;
8913;SDS011;4492;48.736;9.092;2023-03-01T14:27:52;21.67;;;13.13;;
8913;SDS011;4492;48.736;9.092;2023-03-01T14:30:44;22.17;;;14.30;;
8913;SDS011;4492;48.736;9.092;2023-03-01T14:33:19;28.67;;;13.87;;
8913;SDS011;4492;48.736;9.092;2023-03-01T14:36:00;21.80;;;13.07;;
8913;SDS011;4492;48.736;9.092;2023-03-01T14:38:53;20.17;;;13.03;;
8913;SDS011;4492;48.736;9.092;2023-03-01T14:41:20;21.17;;;12.83;;
8913;SDS011;4492;48.736;9.092;2023-03-01T14:43:52;23.13;;;14.30;;
8913;SDS011;4492;48.736;9.092;2023-03-01T14:48:56;25.47;;;13.47;;
8913;SDS011;4492;48.736;9.092;2023-03-01T14:51:26;22.97;;;13.50;;
8913;SDS011;4492;48.736;9.092;2023-03-01T14:53:52;27.27;;;13.63;;
8913;SDS011;4492;48.736;9.092;2023-03-01T14:56:18;22.23;;;13.57;;
8913;SDS011;4492;48.736;9.092;2023-03-01T14:58:44;22.80;;;13.87;;
8913;SDS011;4492;48.736;9.092;2023-03-01T15:01:14;22.67;;;13.70;;
8913;SDS011;4492;48.736;9.092;2023-03-01T15:03:42;24.60;;;14.13;;
8913;SDS011;4492;48.736;9.092;2023-03-01T15:06:10;23.83;;;13.50;;
8913;SDS011;4492;48.736;9.092;2023-03-01T15:08:41;20.17;;;12.90;;
8913;SDS011;4492;48.736;9.092;2023-03-01T15:11:17;21.13;;;14.30;;
8913;SDS011;4492;48.736;9.092;2023-03-01T15:13:49;24.27;;;13.50;;
8913;SDS011;4492;48.736;9.092;2023-03-01T15:16:16;21.90;;;13.37;;
8913;SDS011;4492;48.736;9.092;2023-03-01T15:18:44;22.37;;;13.37;;
8913;SDS011;4492;48.736;9.092;2023-03-01T15:21:16;20.67;;;12.73;;
8913;SDS011;4492;48.736;9.092;2023-03-01T15:23:51;25.17;;;13.77;;
8913;SDS011;4492;48.736;9.092;2023-03-01T15:26:53;24.10;;;13.17;;
8913;SDS011;4492;48.736;9.092;2023-03-01T15:29:27;20.27;;;12.47;;
8913;SDS011;4492;48.736;9.092;2023-03-01T15:31:57;25.23;;;13.93;;
8913;SDS011;4492;48.736;9.092;2023-03-01T15:34:29;22.27;;;13.13;;
8913;SDS011;4492;48.736;9.092;2023-03-01T15:37:00;30.27;;;14.70;;
8913;SDS011;4492;48.736;9.092;2023-03-01T15:44:42;24.90;;;13.77;;
8913;SDS011;4492;48.736;9.092;2023-03-01T15:47:23;25.17;;;14.90;;
8913;SDS011;4492;48.736;9.092;2023-03-01T15:49:56;26.13;;;12.93;;
8913;SDS011;4492;48.736;9.092;2023-03-01T15:52:34;22.87;;;13.60;;
8913;SDS011;4492;48.736;9.092;2023-03-01T15:55:05;22.93;;;13.67;;
8913;SDS011;4492;48.736;9.092;2023-03-01T15:57:40;21.93;;;13.47;;
8913;SDS011;4492;48.736;9.092;2023-03-01T16:00:05;23.70;;;13.13;;
8913;SDS011;4492;48.736;9.092;2023-03-01T16:02:38;19.37;;;12.63;;
8913;SDS011;4492;48.736;9.092;2023-03-01T16:05:05;23.30;;;12.80;;
8913;SDS011;4492;48.736;9.092;2023-03-01T16:07:41;22.83;;;13.13;;
8913;SDS011;4492;48.736;9.092;2023-03-01T16:10:06;23.40;;;13.50;;
8913;SDS011;4492;48.736;9.092;2023-03-01T16:12:32;23.33;;;14.07;;
8913;SDS011;4492;48.736;9.092;2023-03-01T16:14:58;23.40;;;13.40;;
8913;SDS011;4492;48.736;9.092;2023-03-01T16:17:24;24.03;;;13.90;;
8913;SDS011;4492;48.736;9.092;2023-03-01T16:19:50;22.50;;;13.07;;
8913;SDS011;4492;48.736;9.092;2023-03-01T16:22:17;26.77;;;13.87;;
8913;SDS011;4492;48.736;9.092;2023-03-01T16:24:45;21.60;;;12.07;;
8913;SDS011;4492;48.736;9.092;2023-03-01T16:27:11;22.47;;;12.67;;
8913;SDS011;4492;48.736;9.092;2023-03-01T16:29:36;23.10;;;13.13;;
8913;SDS011;4492;48.736;9.092;2023-03-01T16:32:02;22.83;;;12.83;;
8913;SDS011;4492;48.736;9.092;2023-03-01T16:34:28;24.23;;;13.00;;
8913;SDS011;4492;48.736;9.092;2023-03-01T16:36:53;24.77;;;12.60;;
8913;SDS011;4492;48.736;9.092;2023-03-01T16:39:19;25.43;;;13.53;;
8913;SDS011;4492;48.736;9.092;2023-03-01T16:41:44;23.10;;;13.03;;
8913;SDS011;4492;48.736;9.092;2023-03-01T16:44:10;22.53;;;12.40;;
8913;SDS011;4492;48.736;9.092;2023-03-01T16:46:35;25.23;;;13.20;;
8913;SDS011;4492;48.736;9.092;2023-03-01T16:49:01;26.00;;;12.73;;
8913;SDS011;4492;48.736;9.092;2023-03-01T16:51:27;21.87;;;13.53;;
8913;SDS011;4492;48.736;9.092;2023-03-01T16:53:54;23.37;;;12.73;;